sensor_id;sensor_type;location;lat;lon;timestamp;P1;durP1;ratioP1;P2;durP2;ratioP2
51985;SDS011;38002;53.296;6.600;2023-08-06T01:52:18;14.65;;;7.65;;
51985;SDS011;38002;53.296;6.600;2023-08-06T01:57:18;10.93;;;7.80;;
51985;SDS011;38002;53.296;6.600;2023-08-06T02:02:19;13.27;;;8.13;;
51985;SDS011;38002;53.296;6.600;2023-08-06T02:07:19;8.97;;;8.07;;
51985;SDS011;38002;53.296;6.600;2023-08-06T02:12:20;8.93;;;7.27;;
51985;SDS011;38002;53.296;6.600;2023-08-06T02:17:20;14.03;;;9.30;;
51985;SDS011;38002;53.296;6.600;2023-08-06T02:22:21;11.53;;;9.10;;
51985;SDS011;38002;53.296;6.600;2023-08-06T02:27:21;10.87;;;8.23;;
51985;SDS011;38002;53.296;6.600;2023-08-06T02:32:21;8.90;;;8.00;;
51985;SDS011;38002;53.296;6.600;2023-08-06T02:37:22;8.30;;;7.43;;
51985;SDS011;38002;53.296;6.600;2023-08-06T02:42:22;23.97;;;9.90;;
51985;SDS011;38002;53.296;6.600;2023-08-06T02:47:23;9.30;;;8.23;;
51985;SDS011;38002;53.296;6.600;2023-08-06T02:52:24;16.17;;;9.03;;
51985;SDS011;38002;53.296;6.600;2023-08-06T02:57:24;12.50;;;9.60;;
51985;SDS011;38002;53.296;6.600;2023-08-06T03:02:25;9.37;;;8.03;;
51985;SDS011;38002;53.296;6.600;2023-08-06T03:07:26;12.03;;;9.50;;
51985;SDS011;38002;53.296;6.600;2023-08-06T03:12:26;9.10;;;7.57;;
51985;SDS011;38002;53.296;6.600;2023-08-06T03:17:27;10.67;;;8.43;;
51985;SDS011;38002;53.296;6.600;2023-08-06T03:22:27;9.43;;;7.40;;
51985;SDS011;38002;53.296;6.600;2023-08-06T03:27:28;10.47;;;8.17;;
51985;SDS011;38002;53.296;6.600;2023-08-06T03:32:28;11.40;;;7.80;;
51985;SDS011;38002;53.296;6.600;2023-08-06T03:37:29;14.20;;;9.20;;
51985;SDS011;38002;53.296;6.600;2023-08-06T03:42:29;12.30;;;8.97;;
51985;SDS011;38002;53.296;6.600;2023-08-06T03:47:30;9.33;;;7.80;;
51985;SDS011;38002;53.296;6.600;2023-08-06T03:52:30;8.77;;;7.87;;
51985;SDS011;38002;53.296;6.600;2023-08-06T03:57:30;10.80;;;7.77;;
51985;SDS011;38002;53.296;6.600;2023-08-06T04:02:31;8.10;;;7.30;;
51985;SDS011;38002;53.296;6.600;2023-08-06T04:07:31;9.13;;;8.30;;
51985;SDS011;38002;53.296;6.600;2023-08-06T04:12:32;10.57;;;7.83;;
51985;SDS011;38002;53.296;6.600;2023-08-06T04:17:36;9.80;;;8.27;;
51985;SDS011;38002;53.296;6.600;2023-08-06T04:22:37;9.00;;;7.87;;
51985;SDS011;38002;53.296;6.600;2023-08-06T04:27:38;7.50;;;6.80;;
51985;SDS011;38002;53.296;6.600;2023-08-06T04:32:41;9.45;;;8.30;;
51985;SDS011;38002;53.296;6.600;2023-08-06T04:37:41;9.13;;;8.23;;
51985;SDS011;38002;53.296;6.600;2023-08-06T04:42:42;7.20;;;6.40;;
51985;SDS011;38002;53.296;6.600;2023-08-06T04:47:42;8.30;;;7.03;;
51985;SDS011;38002;53.296;6.600;2023-08-06T04:52:43;10.93;;;7.00;;
51985;SDS011;38002;53.296;6.600;2023-08-06T04:57:43;10.67;;;8.73;;
51985;SDS011;38002;53.296;6.600;2023-08-06T05:02:43;9.37;;;6.90;;
51985;SDS011;38002;53.296;6.600;2023-08-06T05:07:45;10.47;;;6.57;;
51985;SDS011;38002;53.296;6.600;2023-08-06T05:12:48;8.82;;;7.63;;
51985;SDS011;38002;53.296;6.600;2023-08-06T05:17:48;7.03;;;6.33;;
51985;SDS011;38002;53.296;6.600;2023-08-06T05:22:49;7.87;;;6.57;;
51985;SDS011;38002;53.296;6.600;2023-08-06T05:27:49;8.03;;;7.20;;
51985;SDS011;38002;53.296;6.600;2023-08-06T05:32:50;7.63;;;6.13;;
51985;SDS011;38002;53.296;6.600;2023-08-06T05:37:50;10.70;;;7.37;;
51985;SDS011;38002;53.296;6.600;2023-08-06T05:42:54;6.73;;;5.80;;
51985;SDS011;38002;53.296;6.600;2023-08-06T05:47:55;7.95;;;6.25;;
51985;SDS011;38002;53.296;6.600;2023-08-06T05:52:58;7.78;;;7.03;;
51985;SDS011;38002;53.296;6.600;2023-08-06T05:57:59;7.60;;;6.23;;
51985;SDS011;38002;53.296;6.600;2023-08-06T06:02:59;7.60;;;6.67;;
51985;SDS011;38002;53.296;6.600;2023-08-06T06:08:00;11.40;;;6.67;;
51985;SDS011;38002;53.296;6.600;2023-08-06T06:13:00;12.27;;;6.60;;
51985;SDS011;38002;53.296;6.600;2023-08-06T06:18:01;6.53;;;5.93;;
51985;SDS011;38002;53.296;6.600;2023-08-06T06:23:01;7.87;;;6.80;;
51985;SDS011;38002;53.296;6.600;2023-08-06T06:28:02;9.03;;;5.67;;
51985;SDS011;38002;53.296;6.600;2023-08-06T06:33:02;8.20;;;6.87;;
51985;SDS011;38002;53.296;6.600;2023-08-06T06:38:03;7.30;;;6.60;;
51985;SDS011;38002;53.296;6.600;2023-08-06T06:43:03;8.33;;;7.30;;
51985;SDS011;38002;53.296;6.600;2023-08-06T06:48:04;7.90;;;6.00;;
51985;SDS011;38002;53.296;6.600;2023-08-06T06:53:04;6.60;;;5.97;;
51985;SDS011;38002;53.296;6.600;2023-08-06T06:58:05;9.73;;;7.33;;
51985;SDS011;38002;53.296;6.600;2023-08-06T07:03:05;7.13;;;5.93;;
51985;SDS011;38002;53.296;6.600;2023-08-06T07:08:06;6.47;;;5.60;;
51985;SDS011;38002;53.296;6.600;2023-08-06T07:13:07;7.00;;;5.47;;
51985;SDS011;38002;53.296;6.600;2023-08-06T07:18:07;4.80;;;4.40;;
51985;SDS011;38002;53.296;6.600;2023-08-06T07:23:08;8.03;;;7.23;;
51985;SDS011;38002;53.296;6.600;2023-08-06T07:28:09;5.57;;;5.00;;
51985;SDS011;38002;53.296;6.600;2023-08-06T07:33:10;8.10;;;7.30;;
51985;SDS011;38002;53.296;6.600;2023-08-06T07:38:10;6.43;;;5.73;;
51985;SDS011;38002;53.296;6.600;2023-08-06T07:43:11;7.53;;;6.57;;
51985;SDS011;38002;53.296;6.600;2023-08-06T07:48:11;8.20;;;7.20;;
51985;SDS011;38002;53.296;6.600;2023-08-06T07:53:11;7.40;;;6.37;;
51985;SDS011;38002;53.296;6.600;2023-08-06T07:58:15;6.57;;;5.90;;
51985;SDS011;38002;53.296;6.600;2023-08-06T08:03:15;7.40;;;5.20;;
51985;SDS011;38002;53.296;6.600;2023-08-06T08:08:16;5.13;;;4.33;;
51985;SDS011;38002;53.296;6.600;2023-08-06T08:13:18;6.53;;;5.70;;
51985;SDS011;38002;53.296;6.600;2023-08-06T08:18:18;4.57;;;4.17;;
51985;SDS011;38002;53.296;6.600;2023-08-06T08:23:19;5.30;;;4.70;;
51985;SDS011;38002;53.296;6.600;2023-08-06T08:28:19;4.30;;;4.00;;
51985;SDS011;38002;53.296;6.600;2023-08-06T08:33:22;4.00;;;3.70;;
51985;SDS011;38002;53.296;6.600;2023-08-06T08:38:22;3.70;;;3.40;;
51985;SDS011;38002;53.296;6.600;2023-08-06T08:43:23;4.70;;;2.60;;
51985;SDS011;38002;53.296;6.600;2023-08-06T08:48:24;2.25;;;2.10;;
51985;SDS011;38002;53.296;6.600;2023-08-06T08:53:25;2.25;;;1.95;;
51985;SDS011;38002;53.296;6.600;2023-08-06T08:58:27;3.45;;;2.60;;
51985;SDS011;38002;53.296;6.600;2023-08-06T09:03:28;2.67;;;2.47;;
51985;SDS011;38002;53.296;6.600;2023-08-06T09:08:31;3.27;;;2.53;;
51985;SDS011;38002;53.296;6.600;2023-08-06T09:13:37;5.72;;;2.58;;
51985;SDS011;38002;53.296;6.600;2023-08-06T09:23:39;3.08;;;2.47;;
51985;SDS011;38002;53.296;6.600;2023-08-06T09:28:39;2.07;;;1.97;;
51985;SDS011;38002;53.296;6.600;2023-08-06T09:33:42;3.42;;;2.10;;
51985;SDS011;38002;53.296;6.600;2023-08-06T09:38:44;2.58;;;2.38;;
51985;SDS011;38002;53.296;6.600;2023-08-06T09:43:44;2.87;;;2.07;;
51985;SDS011;38002;53.296;6.600;2023-08-06T09:48:46;1.77;;;1.67;;
51985;SDS011;38002;53.296;6.600;2023-08-06T09:53:47;2.05;;;1.92;;
51985;SDS011;38002;53.296;6.600;2023-08-06T09:58:48;2.72;;;2.47;;
51985;SDS011;38002;53.296;6.600;2023-08-06T10:03:50;2.63;;;2.05;;
51985;SDS011;38002;53.296;6.600;2023-08-06T10:08:52;2.28;;;1.88;;
51985;SDS011;38002;53.296;6.600;2023-08-06T10:13:53;1.70;;;1.60;;
51985;SDS011;38002;53.296;6.600;2023-08-06T10:18:58;3.55;;;1.80;;
51985;SDS011;38002;53.296;6.600;2023-08-06T10:24:01;2.47;;;1.63;;
51985;SDS011;38002;53.296;6.600;2023-08-06T10:34:55;1.50;;;1.27;;
51985;SDS011;38002;53.296;6.600;2023-08-06T10:39:57;1.90;;;1.40;;
51985;SDS011;38002;53.296;6.600;2023-08-06T10:50:17;14.75;;;2.85;;
51985;SDS011;38002;53.296;6.600;2023-08-06T10:55:25;1.90;;;1.10;;
51985;SDS011;38002;53.296;6.600;2023-08-06T11:00:27;1.40;;;1.30;;
51985;SDS011;38002;53.296;6.600;2023-08-06T11:05:27;2.80;;;1.83;;
51985;SDS011;38002;53.296;6.600;2023-08-06T11:10:28;1.87;;;1.53;;
51985;SDS011;38002;53.296;6.600;2023-08-06T11:15:30;2.77;;;1.43;;
51985;SDS011;38002;53.296;6.600;2023-08-06T11:20:31;1.92;;;1.70;;
51985;SDS011;38002;53.296;6.600;2023-08-06T11:25:36;5.40;;;1.88;;
51985;SDS011;38002;53.296;6.600;2023-08-06T11:30:38;1.73;;;1.60;;
51985;SDS011;38002;53.296;6.600;2023-08-06T11:35:41;1.63;;;1.50;;
51985;SDS011;38002;53.296;6.600;2023-08-06T11:40:43;1.60;;;1.47;;
51985;SDS011;38002;53.296;6.600;2023-08-06T11:45:51;1.65;;;1.42;;
51985;SDS011;38002;53.296;6.600;2023-08-06T11:50:54;5.13;;;1.50;;
51985;SDS011;38002;53.296;6.600;2023-08-06T11:56:01;1.50;;;1.40;;
51985;SDS011;38002;53.296;6.600;2023-08-06T12:01:22;1.13;;;1.13;;
51985;SDS011;38002;53.296;6.600;2023-08-06T12:06:26;1.63;;;1.43;;
51985;SDS011;38002;53.296;6.600;2023-08-06T12:11:27;3.05;;;1.63;;
51985;SDS011;38002;53.296;6.600;2023-08-06T12:16:28;1.77;;;1.50;;
51985;SDS011;38002;53.296;6.600;2023-08-06T12:21:28;1.20;;;1.20;;
51985;SDS011;38002;53.296;6.600;2023-08-06T12:26:29;1.77;;;1.47;;
51985;SDS011;38002;53.296;6.600;2023-08-06T12:31:29;1.50;;;1.30;;
51985;SDS011;38002;53.296;6.600;2023-08-06T12:36:29;1.53;;;1.20;;
51985;SDS011;38002;53.296;6.600;2023-08-06T12:41:30;2.17;;;1.43;;
51985;SDS011;38002;53.296;6.600;2023-08-06T12:46:30;1.30;;;1.17;;
51985;SDS011;38002;53.296;6.600;2023-08-06T12:51:31;3.20;;;1.20;;
51985;SDS011;38002;53.296;6.600;2023-08-06T12:56:34;0.90;;;0.90;;
51985;SDS011;38002;53.296;6.600;2023-08-06T13:01:34;4.25;;;1.27;;
51985;SDS011;38002;53.296;6.600;2023-08-06T13:06:35;3.47;;;1.43;;
51985;SDS011;38002;53.296;6.600;2023-08-06T13:11:38;1.10;;;1.10;;
51985;SDS011;38002;53.296;6.600;2023-08-06T13:16:40;1.35;;;0.93;;
51985;SDS011;38002;53.296;6.600;2023-08-06T13:26:46;1.38;;;1.10;;
51985;SDS011;38002;53.296;6.600;2023-08-06T13:31:46;3.53;;;1.13;;
51985;SDS011;38002;53.296;6.600;2023-08-06T13:36:47;1.33;;;1.20;;
51985;SDS011;38002;53.296;6.600;2023-08-06T13:41:47;1.47;;;1.30;;
51985;SDS011;38002;53.296;6.600;2023-08-06T13:46:48;3.23;;;1.27;;
51985;SDS011;38002;53.296;6.600;2023-08-06T13:51:48;2.50;;;1.40;;
51985;SDS011;38002;53.296;6.600;2023-08-06T13:56:48;1.23;;;1.10;;
51985;SDS011;38002;53.296;6.600;2023-08-06T14:01:50;1.85;;;1.20;;
51985;SDS011;38002;53.296;6.600;2023-08-06T14:06:53;1.30;;;1.20;;
51985;SDS011;38002;53.296;6.600;2023-08-06T14:11:54;2.60;;;1.33;;
51985;SDS011;38002;53.296;6.600;2023-08-06T14:16:54;1.13;;;1.10;;
51985;SDS011;38002;53.296;6.600;2023-08-06T14:21:55;1.48;;;0.95;;
51985;SDS011;38002;53.296;6.600;2023-08-06T14:26:55;1.17;;;1.10;;
51985;SDS011;38002;53.296;6.600;2023-08-06T14:31:56;4.13;;;1.40;;
51985;SDS011;38002;53.296;6.600;2023-08-06T14:36:56;1.20;;;1.20;;
51985;SDS011;38002;53.296;6.600;2023-08-06T14:41:56;1.07;;;0.97;;
51985;SDS011;38002;53.296;6.600;2023-08-06T14:51:57;1.67;;;1.10;;
51985;SDS011;38002;53.296;6.600;2023-08-06T14:57:00;1.15;;;1.13;;
51985;SDS011;38002;53.296;6.600;2023-08-06T15:02:00;1.57;;;1.17;;
51985;SDS011;38002;53.296;6.600;2023-08-06T15:07:01;2.40;;;1.52;;
51985;SDS011;38002;53.296;6.600;2023-08-06T15:12:02;2.13;;;1.30;;
51985;SDS011;38002;53.296;6.600;2023-08-06T15:22:03;1.10;;;1.10;;
51985;SDS011;38002;53.296;6.600;2023-08-06T15:27:04;1.50;;;1.40;;
51985;SDS011;38002;53.296;6.600;2023-08-06T15:32:05;1.38;;;1.27;;
51985;SDS011;38002;53.296;6.600;2023-08-06T15:37:05;1.45;;;1.30;;
51985;SDS011;38002;53.296;6.600;2023-08-06T15:42:07;6.55;;;1.48;;
51985;SDS011;38002;53.296;6.600;2023-08-06T15:47:08;1.27;;;1.17;;
51985;SDS011;38002;53.296;6.600;2023-08-06T15:52:08;1.57;;;1.47;;
51985;SDS011;38002;53.296;6.600;2023-08-06T15:57:09;1.40;;;1.30;;
51985;SDS011;38002;53.296;6.600;2023-08-06T16:02:09;1.45;;;1.35;;
51985;SDS011;38002;53.296;6.600;2023-08-06T16:07:10;1.67;;;1.57;;
51985;SDS011;38002;53.296;6.600;2023-08-06T16:12:10;1.93;;;1.20;;
51985;SDS011;38002;53.296;6.600;2023-08-06T16:17:11;1.50;;;1.10;;
51985;SDS011;38002;53.296;6.600;2023-08-06T16:22:11;1.45;;;1.33;;
51985;SDS011;38002;53.296;6.600;2023-08-06T16:27:12;1.42;;;1.30;;
51985;SDS011;38002;53.296;6.600;2023-08-06T16:32:13;2.77;;;1.27;;
51985;SDS011;38002;53.296;6.600;2023-08-06T16:37:13;2.05;;;1.15;;
51985;SDS011;38002;53.296;6.600;2023-08-06T16:42:14;2.23;;;1.30;;
51985;SDS011;38002;53.296;6.600;2023-08-06T16:47:14;1.50;;;1.40;;
51985;SDS011;38002;53.296;6.600;2023-08-06T16:52:15;2.43;;;1.13;;
51985;SDS011;38002;53.296;6.600;2023-08-06T16:57:15;2.43;;;1.40;;
51985;SDS011;38002;53.296;6.600;2023-08-06T17:02:16;2.80;;;1.30;;
51985;SDS011;38002;53.296;6.600;2023-08-06T17:07:16;1.63;;;1.30;;
51985;SDS011;38002;53.296;6.600;2023-08-06T17:12:16;1.20;;;1.20;;
51985;SDS011;38002;53.296;6.600;2023-08-06T17:17:20;2.22;;;1.30;;
51985;SDS011;38002;53.296;6.600;2023-08-06T17:22:20;2.27;;;1.30;;
51985;SDS011;38002;53.296;6.600;2023-08-06T17:27:20;2.53;;;1.60;;
51985;SDS011;38002;53.296;6.600;2023-08-06T17:32:23;1.88;;;1.50;;
51985;SDS011;38002;53.296;6.600;2023-08-06T17:37:24;1.90;;;1.80;;
51985;SDS011;38002;53.296;6.600;2023-08-06T17:42:24;2.23;;;1.50;;
51985;SDS011;38002;53.296;6.600;2023-08-06T17:47:25;1.90;;;1.33;;
51985;SDS011;38002;53.296;6.600;2023-08-06T17:52:25;1.30;;;1.20;;
51985;SDS011;38002;53.296;6.600;2023-08-06T17:57:25;1.70;;;1.33;;
51985;SDS011;38002;53.296;6.600;2023-08-06T18:02:28;4.17;;;1.67;;
51985;SDS011;38002;53.296;6.600;2023-08-06T18:07:29;4.70;;;1.63;;
51985;SDS011;38002;53.296;6.600;2023-08-06T18:12:29;1.90;;;1.80;;
51985;SDS011;38002;53.296;6.600;2023-08-06T18:17:30;1.67;;;1.57;;
51985;SDS011;38002;53.296;6.600;2023-08-06T18:22:30;2.00;;;1.57;;
51985;SDS011;38002;53.296;6.600;2023-08-06T18:27:32;1.60;;;1.50;;
51985;SDS011;38002;53.296;6.600;2023-08-06T18:32:32;2.85;;;1.80;;
51985;SDS011;38002;53.296;6.600;2023-08-06T18:37:33;1.73;;;1.63;;
51985;SDS011;38002;53.296;6.600;2023-08-06T18:42:34;1.75;;;1.65;;
51985;SDS011;38002;53.296;6.600;2023-08-06T18:47:35;1.50;;;1.13;;
51985;SDS011;38002;53.296;6.600;2023-08-06T18:52:36;2.07;;;1.90;;
51985;SDS011;38002;53.296;6.600;2023-08-06T18:57:36;1.93;;;1.83;;
51985;SDS011;38002;53.296;6.600;2023-08-06T19:02:37;1.80;;;1.70;;
51985;SDS011;38002;53.296;6.600;2023-08-06T19:07:38;1.60;;;1.50;;
51985;SDS011;38002;53.296;6.600;2023-08-06T19:12:38;1.40;;;1.30;;
51985;SDS011;38002;53.296;6.600;2023-08-06T19:17:39;1.70;;;1.60;;
51985;SDS011;38002;53.296;6.600;2023-08-06T19:22:39;1.93;;;1.70;;
51985;SDS011;38002;53.296;6.600;2023-08-06T19:27:40;1.60;;;1.50;;
51985;SDS011;38002;53.296;6.600;2023-08-06T19:32:41;3.43;;;1.70;;
51985;SDS011;38002;53.296;6.600;2023-08-06T19:37:41;1.70;;;1.60;;
51985;SDS011;38002;53.296;6.600;2023-08-06T19:42:42;2.93;;;1.63;;
51985;SDS011;38002;53.296;6.600;2023-08-06T19:47:42;8.40;;;1.63;;
51985;SDS011;38002;53.296;6.600;2023-08-06T19:52:43;2.90;;;1.40;;
51985;SDS011;38002;53.296;6.600;2023-08-06T19:57:44;1.57;;;1.30;;
51985;SDS011;38002;53.296;6.600;2023-08-06T20:02:44;2.30;;;2.10;;
51985;SDS011;38002;53.296;6.600;2023-08-06T20:07:44;2.63;;;2.40;;
51985;SDS011;38002;53.296;6.600;2023-08-06T20:12:45;1.90;;;1.80;;
51985;SDS011;38002;53.296;6.600;2023-08-06T20:17:46;2.63;;;1.43;;
51985;SDS011;38002;53.296;6.600;2023-08-06T20:22:46;2.00;;;1.90;;
51985;SDS011;38002;53.296;6.600;2023-08-06T20:27:47;2.80;;;2.23;;
51985;SDS011;38002;53.296;6.600;2023-08-06T20:32:50;4.45;;;1.83;;
51985;SDS011;38002;53.296;6.600;2023-08-06T20:37:51;4.53;;;2.40;;
51985;SDS011;38002;53.296;6.600;2023-08-06T20:42:52;2.25;;;2.13;;
